sensor_id;sensor_type;location;lat;lon;timestamp;pressure;altitude;pressure_sealevel;temperature;humidity
52249;BME280;38541;48.130;8.378;2024-01-06T00:00:29;91507.91;;;4.19;73.05
52249;BME280;38541;48.130;8.378;2024-01-06T00:02:56;91503.75;;;4.18;72.51
52249;BME280;38541;48.130;8.378;2024-01-06T00:05:22;91499.59;;;4.17;72.69
52249;BME280;38541;48.130;8.378;2024-01-06T00:07:49;91503.75;;;4.23;72.62
52249;BME280;38541;48.130;8.378;2024-01-06T00:10:17;91514.09;;;4.08;72.19
52249;BME280;38541;48.130;8.378;2024-01-06T00:12:44;91511.50;;;4.08;72.26
52249;BME280;38541;48.130;8.378;2024-01-06T00:15:10;91515.19;;;4.17;72.60
52249;BME280;38541;48.130;8.378;2024-01-06T00:17:37;91519.84;;;4.15;72.42
52249;BME280;38541;48.130;8.378;2024-01-06T00:20:04;91516.53;;;4.25;72.21
52249;BME280;38541;48.130;8.378;2024-01-06T00:22:31;91533.16;;;4.29;72.05
52249;BME280;38541;48.130;8.378;2024-01-06T00:24:58;91527.69;;;4.25;71.71
52249;BME280;38541;48.130;8.378;2024-01-06T00:27:25;91526.91;;;4.25;71.66
52249;BME280;38541;48.130;8.378;2024-01-06T00:29:51;91528.19;;;4.17;71.77
52249;BME280;38541;48.130;8.378;2024-01-06T00:32:18;91532.88;;;4.25;72.31
52249;BME280;38541;48.130;8.378;2024-01-06T00:34:44;91529.03;;;4.33;71.34
52249;BME280;38541;48.130;8.378;2024-01-06T00:37:11;91538.13;;;4.31;71.74
52249;BME280;38541;48.130;8.378;2024-01-06T00:39:38;91539.69;;;4.32;71.69
52249;BME280;38541;48.130;8.378;2024-01-06T00:42:04;91538.66;;;4.33;71.42
52249;BME280;38541;48.130;8.378;2024-01-06T00:44:31;91532.66;;;4.27;71.24
52249;BME280;38541;48.130;8.378;2024-01-06T00:46:57;91544.63;;;4.33;71.49
52249;BME280;38541;48.130;8.378;2024-01-06T00:49:24;91541.53;;;4.36;71.33
52249;BME280;38541;48.130;8.378;2024-01-06T00:51:50;91532.44;;;4.39;71.31
52249;BME280;38541;48.130;8.378;2024-01-06T00:54:17;91550.06;;;4.26;70.89
52249;BME280;38541;48.130;8.378;2024-01-06T00:56:44;91554.47;;;4.26;71.46
52249;BME280;38541;48.130;8.378;2024-01-06T00:59:10;91555.81;;;4.28;71.60
52249;BME280;38541;48.130;8.378;2024-01-06T01:01:37;91557.59;;;4.28;71.53
52249;BME280;38541;48.130;8.378;2024-01-06T01:04:03;91557.31;;;4.24;71.56
52249;BME280;38541;48.130;8.378;2024-01-06T01:06:31;91563.59;;;4.28;71.94
52249;BME280;38541;48.130;8.378;2024-01-06T01:08:58;91568.03;;;4.33;71.53
52249;BME280;38541;48.130;8.378;2024-01-06T01:11:24;91569.31;;;4.31;71.47
52249;BME280;38541;48.130;8.378;2024-01-06T01:13:51;91568.00;;;4.28;71.68
52249;BME280;38541;48.130;8.378;2024-01-06T01:16:17;91569.59;;;4.34;71.83
52249;BME280;38541;48.130;8.378;2024-01-06T01:18:44;91571.69;;;4.37;71.47
52249;BME280;38541;48.130;8.378;2024-01-06T01:21:11;91571.97;;;4.41;71.43
52249;BME280;38541;48.130;8.378;2024-01-06T01:23:37;91578.47;;;4.43;71.43
52249;BME280;38541;48.130;8.378;2024-01-06T01:26:04;91585.53;;;4.48;71.52
52249;BME280;38541;48.130;8.378;2024-01-06T01:28:30;91591.78;;;4.52;71.53
52249;BME280;38541;48.130;8.378;2024-01-06T01:30:57;91595.34;;;4.36;71.33
52249;BME280;38541;48.130;8.378;2024-01-06T01:33:25;91603.38;;;4.34;71.86
52249;BME280;38541;48.130;8.378;2024-01-06T01:35:52;91603.63;;;4.27;71.60
52249;BME280;38541;48.130;8.378;2024-01-06T01:38:18;91606.47;;;4.26;71.28
52249;BME280;38541;48.130;8.378;2024-01-06T01:40:45;91602.00;;;4.16;70.91
52249;BME280;38541;48.130;8.378;2024-01-06T01:43:20;91599.88;;;4.08;71.38
52249;BME280;38541;48.130;8.378;2024-01-06T01:45:53;91604.59;;;4.16;71.67
52249;BME280;38541;48.130;8.378;2024-01-06T01:48:20;91599.38;;;4.11;71.41
52249;BME280;38541;48.130;8.378;2024-01-06T01:50:48;91607.19;;;4.16;71.59
52249;BME280;38541;48.130;8.378;2024-01-06T01:53:15;91609.56;;;4.23;71.56
52249;BME280;38541;48.130;8.378;2024-01-06T01:55:42;91612.19;;;4.23;71.33
52249;BME280;38541;48.130;8.378;2024-01-06T01:58:10;91617.66;;;4.26;70.97
52249;BME280;38541;48.130;8.378;2024-01-06T02:00:38;91616.38;;;4.29;71.14
52249;BME280;38541;48.130;8.378;2024-01-06T02:03:05;91612.94;;;4.23;71.13
52249;BME280;38541;48.130;8.378;2024-01-06T02:05:33;91617.66;;;4.26;71.27
52249;BME280;38541;48.130;8.378;2024-01-06T02:08:00;91620.78;;;4.28;71.19
52249;BME280;38541;48.130;8.378;2024-01-06T02:10:26;91614.28;;;4.26;71.16
52249;BME280;38541;48.130;8.378;2024-01-06T02:12:53;91620.50;;;4.25;71.14
52249;BME280;38541;48.130;8.378;2024-01-06T02:15:19;91613.44;;;4.20;70.89
52249;BME280;38541;48.130;8.378;2024-01-06T02:17:46;91620.25;;;4.26;71.35
52249;BME280;38541;48.130;8.378;2024-01-06T02:20:14;91622.88;;;4.26;71.03
52249;BME280;38541;48.130;8.378;2024-01-06T02:22:42;91621.00;;;4.22;70.76
52249;BME280;38541;48.130;8.378;2024-01-06T02:25:08;91617.03;;;4.09;70.82
52249;BME280;38541;48.130;8.378;2024-01-06T02:27:39;91613.84;;;4.02;71.24
52249;BME280;38541;48.130;8.378;2024-01-06T02:30:06;91614.88;;;4.00;71.30
52249;BME280;38541;48.130;8.378;2024-01-06T02:32:34;91615.38;;;3.97;71.14
52249;BME280;38541;48.130;8.378;2024-01-06T02:35:01;91620.81;;;3.96;71.48
52249;BME280;38541;48.130;8.378;2024-01-06T02:37:27;91623.88;;;3.88;71.32
52249;BME280;38541;48.130;8.378;2024-01-06T02:39:54;91622.31;;;3.87;71.58
52249;BME280;38541;48.130;8.378;2024-01-06T02:42:20;91617.09;;;3.81;71.27
52249;BME280;38541;48.130;8.378;2024-01-06T02:44:47;91616.59;;;3.84;71.63
52249;BME280;38541;48.130;8.378;2024-01-06T02:47:13;91623.06;;;3.82;71.60
52249;BME280;38541;48.130;8.378;2024-01-06T02:49:40;91627.38;;;3.71;71.96
52249;BME280;38541;48.130;8.378;2024-01-06T02:52:07;91635.38;;;3.64;72.15
52249;BME280;38541;48.130;8.378;2024-01-06T02:54:33;91627.06;;;3.62;72.70
52249;BME280;38541;48.130;8.378;2024-01-06T02:57:00;91629.63;;;3.57;72.47
52249;BME280;38541;48.130;8.378;2024-01-06T02:59:26;91620.22;;;3.51;72.85
52249;BME280;38541;48.130;8.378;2024-01-06T03:01:53;91638.88;;;3.48;72.42
52249;BME280;38541;48.130;8.378;2024-01-06T03:04:19;91628.47;;;3.48;72.43
52249;BME280;38541;48.130;8.378;2024-01-06T03:06:46;91626.38;;;3.45;72.49
52249;BME280;38541;48.130;8.378;2024-01-06T03:09:18;91621.44;;;3.43;72.88
52249;BME280;38541;48.130;8.378;2024-01-06T03:11:45;91623.78;;;3.45;72.34
52249;BME280;38541;48.130;8.378;2024-01-06T03:14:12;91627.72;;;3.47;72.27
52249;BME280;38541;48.130;8.378;2024-01-06T03:16:38;91632.66;;;3.49;72.49
52249;BME280;38541;48.130;8.378;2024-01-06T03:19:05;91628.78;;;3.51;72.16
52249;BME280;38541;48.130;8.378;2024-01-06T03:21:32;91621.00;;;3.51;72.49
52249;BME280;38541;48.130;8.378;2024-01-06T03:23:59;91628.25;;;3.49;72.22
52249;BME280;38541;48.130;8.378;2024-01-06T03:26:26;91629.47;;;3.41;71.98
52249;BME280;38541;48.130;8.378;2024-01-06T03:28:54;91620.66;;;3.42;72.58
52249;BME280;38541;48.130;8.378;2024-01-06T03:31:21;91622.81;;;3.51;72.32
52249;BME280;38541;48.130;8.378;2024-01-06T03:33:49;91624.31;;;3.47;71.94
52249;BME280;38541;48.130;8.378;2024-01-06T03:36:15;91628.22;;;3.44;72.29
52249;BME280;38541;48.130;8.378;2024-01-06T03:38:43;91615.47;;;3.42;72.15
52249;BME280;38541;48.130;8.378;2024-01-06T03:41:10;91619.59;;;3.38;72.57
52249;BME280;38541;48.130;8.378;2024-01-06T03:43:36;91623.00;;;3.44;72.66
52249;BME280;38541;48.130;8.378;2024-01-06T03:46:03;91618.59;;;3.45;72.60
52249;BME280;38541;48.130;8.378;2024-01-06T03:48:29;91619.09;;;3.41;72.12
52249;BME280;38541;48.130;8.378;2024-01-06T03:50:56;91620.66;;;3.42;72.11
52249;BME280;38541;48.130;8.378;2024-01-06T03:53:23;91618.25;;;3.36;72.72
52249;BME280;38541;48.130;8.378;2024-01-06T03:55:52;91629.47;;;3.41;72.67
52249;BME280;38541;48.130;8.378;2024-01-06T03:58:19;91624.59;;;3.45;72.50
52249;BME280;38541;48.130;8.378;2024-01-06T04:00:45;91622.53;;;3.47;72.72
52249;BME280;38541;48.130;8.378;2024-01-06T04:03:12;91622.81;;;3.51;72.46
52249;BME280;38541;48.130;8.378;2024-01-06T04:05:39;91631.00;;;3.37;71.94
52249;BME280;38541;48.130;8.378;2024-01-06T04:08:06;91624.81;;;3.43;72.14
52249;BME280;38541;48.130;8.378;2024-01-06T04:10:32;91629.09;;;3.55;71.98
52249;BME280;38541;48.130;8.378;2024-01-06T04:12:59;91634.28;;;3.55;71.33
52249;BME280;38541;48.130;8.378;2024-01-06T04:15:25;91627.72;;;3.47;72.38
52249;BME280;38541;48.130;8.378;2024-01-06T04:17:52;91632.41;;;3.50;72.39
52249;BME280;38541;48.130;8.378;2024-01-06T04:20:19;91633.22;;;3.51;71.59
52249;BME280;38541;48.130;8.378;2024-01-06T04:22:45;91634.81;;;3.57;71.46
52249;BME280;38541;48.130;8.378;2024-01-06T04:25:12;91631.47;;;3.62;71.28
52249;BME280;38541;48.130;8.378;2024-01-06T04:27:38;91642.09;;;3.60;71.27
52249;BME280;38541;48.130;8.378;2024-01-06T04:30:05;91643.66;;;3.61;71.42
52249;BME280;38541;48.130;8.378;2024-01-06T04:32:32;91643.72;;;3.66;71.23
52249;BME280;38541;48.130;8.378;2024-01-06T04:34:59;91640.56;;;3.64;71.38
52249;BME280;38541;48.130;8.378;2024-01-06T04:37:25;91634.28;;;3.55;71.40
52249;BME280;38541;48.130;8.378;2024-01-06T04:39:52;91625.41;;;3.51;71.24
52249;BME280;38541;48.130;8.378;2024-01-06T04:42:18;91629.31;;;3.53;71.81
52249;BME280;38541;48.130;8.378;2024-01-06T04:44:46;91630.13;;;3.54;71.10
52249;BME280;38541;48.130;8.378;2024-01-06T04:47:12;91628.78;;;3.51;71.39
52249;BME280;38541;48.130;8.378;2024-01-06T04:49:39;91635.84;;;3.56;71.22
52249;BME280;38541;48.130;8.378;2024-01-06T04:52:05;91628.59;;;3.58;70.99
52249;BME280;38541;48.130;8.378;2024-01-06T04:54:32;91633.28;;;3.61;71.70
52249;BME280;38541;48.130;8.378;2024-01-06T04:56:59;91639.31;;;3.67;71.00
52249;BME280;38541;48.130;8.378;2024-01-06T04:59:25;91638.50;;;3.66;70.83
52249;BME280;38541;48.130;8.378;2024-01-06T05:01:53;91640.63;;;3.69;70.99
52249;BME280;38541;48.130;8.378;2024-01-06T05:04:19;91631.53;;;3.67;70.89
52249;BME280;38541;48.130;8.378;2024-01-06T05:06:46;91647.63;;;3.69;71.00
52249;BME280;38541;48.130;8.378;2024-01-06T05:09:13;91644.81;;;3.70;70.62
52249;BME280;38541;48.130;8.378;2024-01-06T05:11:39;91637.53;;;3.73;70.02
52249;BME280;38541;48.130;8.378;2024-01-06T05:14:06;91647.94;;;3.73;70.42
52249;BME280;38541;48.130;8.378;2024-01-06T05:16:32;91646.63;;;3.75;70.46
52249;BME280;38541;48.130;8.378;2024-01-06T05:18:59;91649.00;;;3.77;70.45
52249;BME280;38541;48.130;8.378;2024-01-06T05:21:25;91655.03;;;3.82;70.43
52249;BME280;38541;48.130;8.378;2024-01-06T05:23:52;91655.53;;;3.79;71.19
52249;BME280;38541;48.130;8.378;2024-01-06T05:26:19;91658.38;;;3.78;71.25
52249;BME280;38541;48.130;8.378;2024-01-06T05:28:45;91661.50;;;3.80;72.72
52249;BME280;38541;48.130;8.378;2024-01-06T05:31:12;91665.66;;;3.81;72.08
52249;BME280;38541;48.130;8.378;2024-01-06T05:33:38;91662.56;;;3.84;72.01
52249;BME280;38541;48.130;8.378;2024-01-06T05:36:05;91664.09;;;3.80;72.09
52249;BME280;38541;48.130;8.378;2024-01-06T05:38:32;91658.38;;;3.78;72.37
52249;BME280;38541;48.130;8.378;2024-01-06T05:40:58;91674.97;;;3.77;72.41
52249;BME280;38541;48.130;8.378;2024-01-06T05:43:25;91680.72;;;3.79;72.18
52249;BME280;38541;48.130;8.378;2024-01-06T05:45:52;91677.03;;;3.75;72.33
52249;BME280;38541;48.130;8.378;2024-01-06T05:48:18;91679.16;;;3.78;72.36
52249;BME280;38541;48.130;8.378;2024-01-06T05:50:45;91685.09;;;3.78;72.40
52249;BME280;38541;48.130;8.378;2024-01-06T05:53:12;91684.34;;;3.78;72.31
52249;BME280;38541;48.130;8.378;2024-01-06T05:55:40;91683.31;;;3.79;72.12
52249;BME280;38541;48.130;8.378;2024-01-06T05:58:07;91689.03;;;3.81;72.27
52249;BME280;38541;48.130;8.378;2024-01-06T06:00:33;91699.47;;;3.86;72.24
52249;BME280;38541;48.130;8.378;2024-01-06T06:03:00;91695.31;;;3.85;71.45
52249;BME280;38541;48.130;8.378;2024-01-06T06:05:26;91692.16;;;3.83;71.76
52249;BME280;38541;48.130;8.378;2024-01-06T06:07:53;91697.88;;;3.80;71.86
52249;BME280;38541;48.130;8.378;2024-01-06T06:10:21;91704.31;;;3.77;72.05
52249;BME280;38541;48.130;8.378;2024-01-06T06:12:47;91700.47;;;3.80;71.95
52249;BME280;38541;48.130;8.378;2024-01-06T06:15:14;91702.56;;;3.83;71.92
52249;BME280;38541;48.130;8.378;2024-01-06T06:17:41;91711.88;;;3.79;71.72
52249;BME280;38541;48.130;8.378;2024-01-06T06:20:07;91710.91;;;3.85;71.99
52249;BME280;38541;48.130;8.378;2024-01-06T06:22:34;91707.25;;;3.86;72.00
52249;BME280;38541;48.130;8.378;2024-01-06T06:25:01;91708.81;;;3.87;72.19
52249;BME280;38541;48.130;8.378;2024-01-06T06:27:27;91718.94;;;3.83;72.32
52249;BME280;38541;48.130;8.378;2024-01-06T06:29:54;91723.13;;;3.84;72.22
52249;BME280;38541;48.130;8.378;2024-01-06T06:32:22;91726.75;;;3.83;72.69
52249;BME280;38541;48.130;8.378;2024-01-06T06:34:49;91727.50;;;3.84;72.52
52249;BME280;38541;48.130;8.378;2024-01-06T06:37:15;91736.59;;;3.81;72.38
52249;BME280;38541;48.130;8.378;2024-01-06T06:39:42;91734.78;;;3.82;72.61
52249;BME280;38541;48.130;8.378;2024-01-06T06:42:11;91736.34;;;3.83;72.84
52249;BME280;38541;48.130;8.378;2024-01-06T06:44:38;91742.56;;;3.82;72.81
52249;BME280;38541;48.130;8.378;2024-01-06T06:47:04;91747.00;;;3.81;73.22
52249;BME280;38541;48.130;8.378;2024-01-06T06:49:31;91743.06;;;3.79;72.95
52249;BME280;38541;48.130;8.378;2024-01-06T06:51:57;91749.50;;;3.76;73.12
52249;BME280;38541;48.130;8.378;2024-01-06T06:54:24;91739.91;;;3.77;72.58
52249;BME280;38541;48.130;8.378;2024-01-06T06:56:50;91743.78;;;3.74;72.98
52249;BME280;38541;48.130;8.378;2024-01-06T06:59:17;91747.66;;;3.71;72.58
52249;BME280;38541;48.130;8.378;2024-01-06T07:01:43;91742.53;;;3.77;72.81
52249;BME280;38541;48.130;8.378;2024-01-06T07:04:10;91750.81;;;3.74;72.91
52249;BME280;38541;48.130;8.378;2024-01-06T07:06:37;91749.25;;;3.73;72.01
52249;BME280;38541;48.130;8.378;2024-01-06T07:09:03;91752.06;;;3.71;71.16
52249;BME280;38541;48.130;8.378;2024-01-06T07:11:31;91749.16;;;3.67;70.98
52249;BME280;38541;48.130;8.378;2024-01-06T07:13:57;91743.88;;;3.57;70.71
52249;BME280;38541;48.130;8.378;2024-01-06T07:16:24;91747.38;;;3.46;70.53
52249;BME280;38541;48.130;8.378;2024-01-06T07:18:51;91744.25;;;3.43;70.62
52249;BME280;38541;48.130;8.378;2024-01-06T07:21:17;91746.06;;;3.43;70.56
52249;BME280;38541;48.130;8.378;2024-01-06T07:23:44;91747.91;;;3.48;70.42
52249;BME280;38541;48.130;8.378;2024-01-06T07:26:10;91754.13;;;3.47;70.68
52249;BME280;38541;48.130;8.378;2024-01-06T07:28:37;91753.06;;;3.42;70.30
52249;BME280;38541;48.130;8.378;2024-01-06T07:31:04;91751.25;;;3.43;70.39
52249;BME280;38541;48.130;8.378;2024-01-06T07:33:31;91753.00;;;3.37;70.32
52249;BME280;38541;48.130;8.378;2024-01-06T07:35:58;91753.50;;;3.34;70.50
52249;BME280;38541;48.130;8.378;2024-01-06T07:38:24;91764.13;;;3.33;70.41
52249;BME280;38541;48.130;8.378;2024-01-06T07:40:51;91760.25;;;3.35;70.66
52249;BME280;38541;48.130;8.378;2024-01-06T07:43:17;91757.13;;;3.33;70.52
52249;BME280;38541;48.130;8.378;2024-01-06T07:45:44;91758.00;;;3.22;70.20
52249;BME280;38541;48.130;8.378;2024-01-06T07:48:10;91764.72;;;3.18;71.24
52249;BME280;38541;48.130;8.378;2024-01-06T07:50:37;91767.06;;;3.19;70.65
52249;BME280;38541;48.130;8.378;2024-01-06T07:53:04;91768.88;;;3.19;71.11
52249;BME280;38541;48.130;8.378;2024-01-06T07:55:30;91771.53;;;3.24;71.36
52249;BME280;38541;48.130;8.378;2024-01-06T07:57:57;91777.59;;;3.30;71.70
52249;BME280;38541;48.130;8.378;2024-01-06T08:00:24;91782.94;;;3.23;71.27
52249;BME280;38541;48.130;8.378;2024-01-06T08:02:51;91781.59;;;3.20;71.10
52249;BME280;38541;48.130;8.378;2024-01-06T08:05:17;91781.31;;;3.17;71.42
52249;BME280;38541;48.130;8.378;2024-01-06T08:07:44;91785.97;;;3.14;71.29
52249;BME280;38541;48.130;8.378;2024-01-06T08:10:10;91785.34;;;3.07;71.41
52249;BME280;38541;48.130;8.378;2024-01-06T08:12:37;91786.41;;;3.11;71.54
52249;BME280;38541;48.130;8.378;2024-01-06T08:15:04;91783.91;;;3.17;71.66
52249;BME280;38541;48.130;8.378;2024-01-06T08:17:31;91790.72;;;3.23;71.20
52249;BME280;38541;48.130;8.378;2024-01-06T08:19:57;91785.09;;;3.31;71.24
52249;BME280;38541;48.130;8.378;2024-01-06T08:22:24;91784.56;;;3.29;71.10
52249;BME280;38541;48.130;8.378;2024-01-06T08:24:50;91789.69;;;3.24;70.77
52249;BME280;38541;48.130;8.378;2024-01-06T08:27:17;91790.41;;;3.19;71.58
52249;BME280;38541;48.130;8.378;2024-01-06T08:29:44;91789.59;;;3.13;71.18
52249;BME280;38541;48.130;8.378;2024-01-06T08:32:11;91798.38;;;3.12;71.19
52249;BME280;38541;48.130;8.378;2024-01-06T08:34:37;91790.84;;;3.11;71.04
52249;BME280;38541;48.130;8.378;2024-01-06T08:37:04;91796.41;;;3.20;71.25
52249;BME280;38541;48.130;8.378;2024-01-06T08:39:31;91800.09;;;3.24;71.11
52249;BME280;38541;48.130;8.378;2024-01-06T08:41:58;91795.97;;;3.28;70.99
52249;BME280;38541;48.130;8.378;2024-01-06T08:44:27;91795.50;;;3.31;70.87
52249;BME280;38541;48.130;8.378;2024-01-06T08:46:54;91799.13;;;3.30;70.53
52249;BME280;38541;48.130;8.378;2024-01-06T08:49:21;91806.81;;;3.42;70.55
52249;BME280;38541;48.130;8.378;2024-01-06T08:51:48;91809.22;;;3.49;70.37
52249;BME280;38541;48.130;8.378;2024-01-06T08:54:14;91813.69;;;3.53;69.95
52249;BME280;38541;48.130;8.378;2024-01-06T08:56:42;91812.53;;;3.66;70.13
52249;BME280;38541;48.130;8.378;2024-01-06T08:59:08;91812.47;;;3.61;69.57
52249;BME280;38541;48.130;8.378;2024-01-06T09:01:35;91814.31;;;3.61;70.22
52249;BME280;38541;48.130;8.378;2024-01-06T09:04:03;91817.91;;;3.60;69.73
52249;BME280;38541;48.130;8.378;2024-01-06T09:06:30;91820.81;;;3.63;70.18
52249;BME280;38541;48.130;8.378;2024-01-06T09:08:57;91822.44;;;3.69;69.95
52249;BME280;38541;48.130;8.378;2024-01-06T09:11:24;91818.53;;;3.67;69.54
52249;BME280;38541;48.130;8.378;2024-01-06T09:13:51;91818.63;;;3.77;69.46
52249;BME280;38541;48.130;8.378;2024-01-06T09:16:19;91815.84;;;3.84;69.24
52249;BME280;38541;48.130;8.378;2024-01-06T09:18:46;91822.50;;;3.75;68.60
52249;BME280;38541;48.130;8.378;2024-01-06T09:21:12;91820.50;;;3.82;69.10
52249;BME280;38541;48.130;8.378;2024-01-06T09:23:39;91818.56;;;3.94;69.15
52249;BME280;38541;48.130;8.378;2024-01-06T09:26:06;91818.66;;;4.05;68.89
52249;BME280;38541;48.130;8.378;2024-01-06T09:28:33;91819.28;;;4.12;68.42
52249;BME280;38541;48.130;8.378;2024-01-06T09:30:59;91819.19;;;4.07;68.21
52249;BME280;38541;48.130;8.378;2024-01-06T09:33:26;91819.47;;;4.05;68.33
52249;BME280;38541;48.130;8.378;2024-01-06T09:35:53;91824.97;;;4.09;68.50
52249;BME280;38541;48.130;8.378;2024-01-06T09:38:19;91826.31;;;4.17;68.57
52249;BME280;38541;48.130;8.378;2024-01-06T09:40:46;91831.81;;;4.20;67.91
52249;BME280;38541;48.130;8.378;2024-01-06T09:43:12;91828.38;;;4.14;67.42
52249;BME280;38541;48.130;8.378;2024-01-06T09:45:39;91832.69;;;4.04;67.44
52249;BME280;38541;48.130;8.378;2024-01-06T09:48:11;91841.00;;;4.06;67.66
52249;BME280;38541;48.130;8.378;2024-01-06T09:50:43;91844.75;;;4.15;67.78
52249;BME280;38541;48.130;8.378;2024-01-06T09:53:11;91841.59;;;4.08;67.41
52249;BME280;38541;48.130;8.378;2024-01-06T09:55:38;91843.19;;;4.14;67.21
52249;BME280;38541;48.130;8.378;2024-01-06T09:58:05;91846.84;;;4.13;66.42
52249;BME280;38541;48.130;8.378;2024-01-06T10:00:35;91837.31;;;4.24;67.07
52249;BME280;38541;48.130;8.378;2024-01-06T10:03:02;91838.34;;;4.23;66.08
52249;BME280;38541;48.130;8.378;2024-01-06T10:05:28;91832.66;;;4.26;64.97
52249;BME280;38541;48.130;8.378;2024-01-06T10:07:57;91835.75;;;4.23;65.51
52249;BME280;38541;48.130;8.378;2024-01-06T10:10:23;91838.97;;;4.35;65.45
52249;BME280;38541;48.130;8.378;2024-01-06T10:12:53;91836.25;;;4.47;65.56
52249;BME280;38541;48.130;8.378;2024-01-06T10:15:20;91837.38;;;4.62;65.40
52249;BME280;38541;48.130;8.378;2024-01-06T10:17:47;91827.81;;;4.67;65.50
52249;BME280;38541;48.130;8.378;2024-01-06T10:20:14;91835.41;;;4.74;64.86
52249;BME280;38541;48.130;8.378;2024-01-06T10:22:42;91832.19;;;4.62;64.60
52249;BME280;38541;48.130;8.378;2024-01-06T10:25:10;91827.84;;;4.72;64.60
52249;BME280;38541;48.130;8.378;2024-01-06T10:27:38;91826.88;;;4.79;64.54
52249;BME280;38541;48.130;8.378;2024-01-06T10:30:09;91817.88;;;4.97;64.78
52249;BME280;38541;48.130;8.378;2024-01-06T10:32:37;91821.84;;;5.10;63.98
52249;BME280;38541;48.130;8.378;2024-01-06T10:35:04;91828.03;;;4.98;63.22
52249;BME280;38541;48.130;8.378;2024-01-06T10:37:32;91826.38;;;4.82;63.36
52249;BME280;38541;48.130;8.378;2024-01-06T10:40:10;91835.34;;;5.02;64.19
52249;BME280;38541;48.130;8.378;2024-01-06T10:42:38;91829.78;;;4.88;63.06
52249;BME280;38541;48.130;8.378;2024-01-06T10:45:11;91833.69;;;4.52;63.20
52249;BME280;38541;48.130;8.378;2024-01-06T10:47:39;91833.19;;;4.55;64.36
52249;BME280;38541;48.130;8.378;2024-01-06T10:50:07;91831.59;;;4.54;64.17
52249;BME280;38541;48.130;8.378;2024-01-06T10:52:38;91826.50;;;4.65;63.69
52249;BME280;38541;48.130;8.378;2024-01-06T10:55:05;91828.97;;;4.49;63.95
52249;BME280;38541;48.130;8.378;2024-01-06T10:57:32;91829.34;;;4.63;64.86
52249;BME280;38541;48.130;8.378;2024-01-06T10:59:59;91826.41;;;4.54;64.68
52249;BME280;38541;48.130;8.378;2024-01-06T11:02:26;91816.66;;;4.72;64.83
52249;BME280;38541;48.130;8.378;2024-01-06T11:04:53;91816.72;;;4.82;64.50
52249;BME280;38541;48.130;8.378;2024-01-06T11:07:21;91814.44;;;4.91;64.01
52249;BME280;38541;48.130;8.378;2024-01-06T11:09:59;91816.09;;;5.03;63.89
52249;BME280;38541;48.130;8.378;2024-01-06T11:12:29;91813.50;;;5.08;63.82
52249;BME280;38541;48.130;8.378;2024-01-06T11:14:55;91823.66;;;5.04;64.02
52249;BME280;38541;48.130;8.378;2024-01-06T11:17:50;91821.47;;;4.91;63.26
52249;BME280;38541;48.130;8.378;2024-01-06T11:20:24;91820.38;;;4.81;63.54
52249;BME280;38541;48.130;8.378;2024-01-06T11:22:53;91821.59;;;4.74;63.96
52249;BME280;38541;48.130;8.378;2024-01-06T11:25:21;91820.69;;;4.57;64.17
52249;BME280;38541;48.130;8.378;2024-01-06T11:27:49;91820.63;;;4.47;64.78
52249;BME280;38541;48.130;8.378;2024-01-06T11:30:21;91821.53;;;4.31;65.43
52249;BME280;38541;48.130;8.378;2024-01-06T11:32:48;91811.97;;;4.09;65.96
52249;BME280;38541;48.130;8.378;2024-01-06T11:35:15;91817.63;;;4.06;65.80
52249;BME280;38541;48.130;8.378;2024-01-06T11:40:33;91822.19;;;3.93;67.04
52249;BME280;38541;48.130;8.378;2024-01-06T11:43:05;91818.56;;;3.94;67.13
52249;BME280;38541;48.130;8.378;2024-01-06T11:45:34;91811.16;;;4.08;67.33
52249;BME280;38541;48.130;8.378;2024-01-06T11:48:02;91825.09;;;4.24;67.18
52249;BME280;38541;48.130;8.378;2024-01-06T11:50:33;91819.75;;;4.36;66.82
52249;BME280;38541;48.130;8.378;2024-01-06T11:53:01;91811.25;;;4.46;66.40
52249;BME280;38541;48.130;8.378;2024-01-06T11:55:28;91816.09;;;4.65;65.83
52249;BME280;38541;48.130;8.378;2024-01-06T11:57:58;91809.34;;;4.69;65.31
52249;BME280;38541;48.130;8.378;2024-01-06T12:00:29;91809.03;;;4.60;65.60
52249;BME280;38541;48.130;8.378;2024-01-06T12:03:00;91806.09;;;4.51;65.72
52249;BME280;38541;48.130;8.378;2024-01-06T12:05:28;91804.97;;;4.42;66.20
52249;BME280;38541;48.130;8.378;2024-01-06T12:07:59;91815.09;;;4.38;67.28
52249;BME280;38541;48.130;8.378;2024-01-06T12:10:27;91811.41;;;4.34;68.24
52249;BME280;38541;48.130;8.378;2024-01-06T12:13:05;91808.31;;;4.37;68.00
52249;BME280;38541;48.130;8.378;2024-01-06T12:15:32;91816.16;;;4.42;68.40
52249;BME280;38541;48.130;8.378;2024-01-06T12:18:03;91804.53;;;4.50;68.70
52249;BME280;38541;48.130;8.378;2024-01-06T12:20:30;91807.88;;;4.46;68.46
52249;BME280;38541;48.130;8.378;2024-01-06T12:22:57;91812.59;;;4.54;68.94
52249;BME280;38541;48.130;8.378;2024-01-06T12:25:25;91804.09;;;4.64;67.91
52249;BME280;38541;48.130;8.378;2024-01-06T12:27:52;91801.72;;;4.57;67.48
52249;BME280;38541;48.130;8.378;2024-01-06T12:30:21;91811.78;;;4.48;68.07
52249;BME280;38541;48.130;8.378;2024-01-06T12:32:49;91801.41;;;4.48;68.17
52249;BME280;38541;48.130;8.378;2024-01-06T12:35:20;91799.03;;;4.47;67.98
52249;BME280;38541;48.130;8.378;2024-01-06T12:37:47;91801.88;;;4.45;68.49
52249;BME280;38541;48.130;8.378;2024-01-06T12:40:14;91795.09;;;4.44;68.90
52249;BME280;38541;48.130;8.378;2024-01-06T12:42:43;91793.19;;;4.34;68.51
52249;BME280;38541;48.130;8.378;2024-01-06T12:45:11;91796.50;;;4.24;69.38
52249;BME280;38541;48.130;8.378;2024-01-06T12:47:39;91797.97;;;4.15;69.63
52249;BME280;38541;48.130;8.378;2024-01-06T12:50:06;91796.78;;;4.28;69.87
52249;BME280;38541;48.130;8.378;2024-01-06T12:52:33;91791.00;;;4.48;69.35
52249;BME280;38541;48.130;8.378;2024-01-06T12:55:00;91795.69;;;4.51;69.00
52249;BME280;38541;48.130;8.378;2024-01-06T12:57:26;91791.47;;;4.45;69.31
52249;BME280;38541;48.130;8.378;2024-01-06T12:59:53;91801.41;;;4.48;69.11
52249;BME280;38541;48.130;8.378;2024-01-06T13:02:21;91799.75;;;4.42;69.51
52249;BME280;38541;48.130;8.378;2024-01-06T13:04:47;91798.66;;;4.33;69.74
52249;BME280;38541;48.130;8.378;2024-01-06T13:07:14;91799.34;;;4.23;69.47
52249;BME280;38541;48.130;8.378;2024-01-06T13:09:41;91796.72;;;4.18;69.53
52249;BME280;38541;48.130;8.378;2024-01-06T13:12:07;91798.84;;;3.98;70.01